createdAt,value
2017-06-10T00:00:24.773Z,0
2017-06-10T00:01:24.873Z,0
2017-06-10T00:02:24.784Z,0
2017-06-10T00:03:24.794Z,0
2017-06-10T00:04:24.799Z,0
2017-06-10T00:05:24.791Z,0
2017-06-10T00:06:24.800Z,0
2017-06-10T00:07:24.787Z,0
2017-06-10T00:08:24.901Z,0
2017-06-10T00:09:24.890Z,0
2017-06-10T00:10:24.907Z,0
2017-06-10T00:11:24.902Z,0
2017-06-10T00:12:24.724Z,0
2017-06-10T00:13:24.811Z,0
2017-06-10T00:14:24.920Z,0
2017-06-10T00:15:24.820Z,0
2017-06-10T00:16:24.815Z,0
2017-06-10T00:17:24.815Z,0
2017-06-10T00:18:24.822Z,0
2017-06-10T00:19:24.929Z,0
2017-06-10T00:20:24.804Z,0
2017-06-10T00:21:24.852Z,0
2017-06-10T00:22:24.787Z,0
2017-06-10T00:23:24.797Z,0
2017-06-10T00:24:24.821Z,0
2017-06-10T00:25:24.775Z,0
2017-06-10T00:26:24.779Z,0
2017-06-10T00:27:24.728Z,0
2017-06-10T00:28:24.735Z,0
2017-06-10T00:29:24.815Z,0
2017-06-10T00:30:24.819Z,0
2017-06-10T00:31:24.818Z,0
2017-06-10T00:32:24.795Z,0
2017-06-10T00:33:24.787Z,0
2017-06-10T00:34:24.821Z,0
2017-06-10T00:35:24.831Z,0
2017-06-10T00:36:24.938Z,0
2017-06-10T00:37:24.842Z,0
2017-06-10T00:38:24.838Z,0
2017-06-10T00:39:24.941Z,0
2017-06-10T00:40:24.945Z,0
2017-06-10T00:41:24.842Z,0
2017-06-10T00:42:24.921Z,0
2017-06-10T00:43:24.929Z,0
2017-06-10T00:44:24.819Z,0
2017-06-10T00:45:24.896Z,0
2017-06-10T00:46:24.911Z,0
2017-06-10T00:47:24.820Z,0
2017-06-10T00:48:24.930Z,0
2017-06-10T00:49:24.808Z,0
2017-06-10T00:50:24.931Z,0
2017-06-10T00:51:24.826Z,0
2017-06-10T00:52:24.831Z,0
2017-06-10T00:53:24.872Z,0
2017-06-10T00:54:24.949Z,0
2017-06-10T00:55:24.827Z,0
2017-06-10T00:56:24.830Z,0
2017-06-10T00:57:24.928Z,0
2017-06-10T00:58:24.748Z,0
2017-06-10T00:59:24.743Z,0
2017-06-10T01:00:24.836Z,0
2017-06-10T01:01:24.754Z,0
2017-06-10T01:02:24.818Z,0
2017-06-10T01:03:24.821Z,0
2017-06-10T01:04:24.817Z,0
2017-06-10T01:05:24.831Z,0
2017-06-10T01:06:24.939Z,0
2017-06-10T01:07:24.846Z,0
2017-06-10T01:08:24.923Z,0
2017-06-10T01:09:24.819Z,0
2017-06-10T01:10:24.823Z,0
2017-06-10T01:11:24.832Z,0
2017-06-10T01:12:24.861Z,0
2017-06-10T01:13:24.844Z,0
2017-06-10T01:14:24.776Z,0
2017-06-10T01:15:24.866Z,0
2017-06-10T01:16:24.865Z,0
2017-06-10T01:17:24.780Z,0
2017-06-10T01:18:24.751Z,0
2017-06-10T01:19:24.866Z,0
2017-06-10T01:20:24.852Z,0
2017-06-10T01:21:24.853Z,0
2017-06-10T01:22:24.829Z,0
2017-06-10T01:23:24.830Z,0
2017-06-10T01:24:24.831Z,0
2017-06-10T01:25:24.833Z,0
2017-06-10T01:26:24.860Z,0
2017-06-10T01:27:24.830Z,0
2017-06-10T01:28:24.833Z,0
2017-06-10T01:29:24.834Z,0
2017-06-10T01:30:24.832Z,0
2017-06-10T01:31:24.834Z,0
2017-06-10T01:32:24.848Z,0
2017-06-10T01:33:24.851Z,0
2017-06-10T01:34:24.769Z,0
2017-06-10T01:35:24.787Z,0
2017-06-10T01:36:24.860Z,0
2017-06-10T01:37:24.915Z,0
2017-06-10T01:38:24.785Z,0
2017-06-10T01:39:24.857Z,0
2017-06-10T01:40:24.869Z,0
2017-06-10T01:41:24.856Z,0
2017-06-10T01:42:24.841Z,0
2017-06-10T01:43:24.842Z,0
2017-06-10T01:44:24.837Z,0
2017-06-10T01:45:24.843Z,0
2017-06-10T01:46:24.845Z,0
2017-06-10T01:47:24.841Z,0
2017-06-10T01:48:24.848Z,0
2017-06-10T01:49:24.843Z,0
2017-06-10T01:50:24.842Z,0
2017-06-10T01:51:24.846Z,0
2017-06-10T01:52:24.858Z,0
2017-06-10T01:53:24.837Z,0
2017-06-10T01:54:24.861Z,0
2017-06-10T01:55:24.800Z,0
2017-06-10T01:56:24.862Z,0
2017-06-10T01:57:24.866Z,0
2017-06-10T01:58:24.833Z,0
2017-06-10T01:59:24.797Z,0
2017-06-10T02:00:24.860Z,0
2017-06-10T02:01:24.838Z,0
2017-06-10T02:02:24.784Z,0
2017-06-10T02:03:24.863Z,0
2017-06-10T02:04:24.783Z,0
2017-06-10T02:05:24.784Z,0
2017-06-10T02:06:24.861Z,0
2017-06-10T02:07:24.860Z,0
2017-06-10T02:08:24.873Z,0
2017-06-10T02:09:24.783Z,0
2017-06-10T02:10:24.836Z,0
2017-06-10T02:11:24.872Z,0
2017-06-10T02:12:24.790Z,0
2017-06-10T02:13:24.885Z,0
2017-06-10T02:14:24.810Z,0
2017-06-10T02:15:24.869Z,0
2017-06-10T02:16:24.874Z,0
2017-06-10T02:17:24.837Z,0
2017-06-10T02:18:24.846Z,0
2017-06-10T02:19:24.879Z,0
2017-06-10T02:20:24.876Z,0
2017-06-10T02:21:24.856Z,0
2017-06-10T02:22:24.870Z,0
2017-06-10T02:23:24.877Z,0
2017-06-10T02:24:24.794Z,0
2017-06-10T02:25:24.886Z,0
2017-06-10T02:26:24.884Z,0
2017-06-10T02:27:24.870Z,0
2017-06-10T02:28:24.842Z,0
2017-06-10T02:29:24.879Z,0
2017-06-10T02:30:24.880Z,0
2017-06-10T02:31:24.806Z,0
2017-06-10T02:32:24.867Z,0
2017-06-10T02:33:24.866Z,0
2017-06-10T02:34:24.868Z,0
2017-06-10T02:35:24.866Z,0
2017-06-10T02:36:24.870Z,0
2017-06-10T02:37:24.885Z,0
2017-06-10T02:38:24.870Z,0
2017-06-10T02:39:24.877Z,0
2017-06-10T02:40:24.886Z,0
2017-06-10T02:41:24.872Z,0
2017-06-10T02:42:24.889Z,0
2017-06-10T02:43:24.852Z,0
2017-06-10T02:44:24.810Z,0
2017-06-10T02:45:24.889Z,0
2017-06-10T02:46:24.894Z,0
2017-06-10T02:47:24.805Z,0
2017-06-10T02:48:24.895Z,0
2017-06-10T02:49:24.859Z,0
2017-06-10T02:50:24.902Z,0
2017-06-10T02:51:24.812Z,0
2017-06-10T02:52:24.898Z,0
2017-06-10T02:53:24.864Z,0
2017-06-10T02:54:24.866Z,0
2017-06-10T02:55:24.865Z,0
2017-06-10T02:56:24.865Z,0
2017-06-10T02:57:24.867Z,0
2017-06-10T02:58:24.869Z,0
2017-06-10T02:59:24.974Z,0
2017-06-10T03:00:24.870Z,0
2017-06-10T03:01:24.867Z,0
2017-06-10T03:02:24.869Z,0
2017-06-10T03:03:24.881Z,0
2017-06-10T03:04:24.884Z,0
2017-06-10T03:05:24.886Z,0
2017-06-10T03:06:24.889Z,0
2017-06-10T03:07:24.899Z,0
2017-06-10T03:08:24.885Z,0
2017-06-10T03:09:24.886Z,0
2017-06-10T03:10:24.967Z,0
2017-06-10T03:11:24.891Z,0
2017-06-10T03:12:24.799Z,0
2017-06-10T03:13:24.823Z,0
2017-06-10T03:14:24.874Z,0
2017-06-10T03:15:24.897Z,0
2017-06-10T03:16:24.902Z,0
2017-06-10T03:17:24.829Z,0
2017-06-10T03:18:24.888Z,0
2017-06-10T03:19:24.893Z,0
2017-06-10T03:20:24.874Z,0
2017-06-10T03:21:24.909Z,0
2017-06-10T03:22:24.914Z,0
2017-06-10T03:23:24.919Z,0
2017-06-10T03:24:24.907Z,0
2017-06-10T03:25:24.830Z,0
2017-06-10T03:26:24.902Z,0
2017-06-10T03:27:24.886Z,0
2017-06-10T03:28:24.834Z,0
2017-06-10T03:29:24.835Z,0
2017-06-10T03:30:24.833Z,0
2017-06-10T03:31:24.915Z,0
2017-06-10T03:32:24.914Z,0
2017-06-10T03:33:24.889Z,0
2017-06-10T03:34:24.994Z,0
2017-06-10T03:35:24.885Z,0
2017-06-10T03:36:24.889Z,0
2017-06-10T03:37:24.886Z,0
2017-06-10T03:38:24.887Z,0
2017-06-10T03:39:24.887Z,0
2017-06-10T03:40:24.892Z,0
2017-06-10T03:41:24.988Z,0
2017-06-10T03:42:24.890Z,0
2017-06-10T03:43:24.824Z,0
2017-06-10T03:44:24.826Z,0
2017-06-10T03:45:24.832Z,0
2017-06-10T03:46:24.806Z,0
2017-06-10T03:47:24.858Z,0
2017-06-10T03:48:24.818Z,0
2017-06-10T03:49:24.876Z,0
2017-06-10T03:50:24.832Z,0
2017-06-10T03:51:24.878Z,0
2017-06-10T03:52:24.837Z,0
2017-06-10T03:53:24.906Z,0
2017-06-10T03:54:24.911Z,0
2017-06-10T03:55:24.912Z,0
2017-06-10T03:56:24.914Z,0
2017-06-10T03:57:24.909Z,0
2017-06-10T03:58:24.912Z,0
2017-06-10T03:59:24.912Z,0
2017-06-10T04:00:24.915Z,0
2017-06-10T04:01:24.910Z,0
2017-06-10T04:02:24.914Z,0
2017-06-10T04:03:24.850Z,0
2017-06-10T04:04:24.934Z,0
2017-06-10T04:05:24.857Z,0
2017-06-10T04:06:25.036Z,0
2017-06-10T04:07:24.928Z,0
2017-06-10T04:08:24.850Z,0
2017-06-10T04:09:24.845Z,17
2017-06-10T04:10:24.935Z,19
2017-06-10T04:11:24.851Z,22
2017-06-10T04:12:24.855Z,25
2017-06-10T04:13:24.860Z,27
2017-06-10T04:14:24.948Z,28
2017-06-10T04:15:24.858Z,30
2017-06-10T04:16:24.916Z,34
2017-06-10T04:17:24.940Z,34
2017-06-10T04:18:24.944Z,36
2017-06-10T04:19:24.940Z,39
2017-06-10T04:20:24.934Z,40
2017-06-10T04:21:24.941Z,42
2017-06-10T04:22:24.967Z,45
2017-06-10T04:23:24.925Z,49
2017-06-10T04:24:24.929Z,54
2017-06-10T04:25:24.927Z,58
2017-06-10T04:26:24.942Z,62
2017-06-10T04:27:24.931Z,60
2017-06-10T04:28:24.932Z,58
2017-06-10T04:29:24.927Z,60
2017-06-10T04:30:24.929Z,62
2017-06-10T04:31:24.956Z,64
2017-06-10T04:32:24.931Z,64
2017-06-10T04:33:24.933Z,64
2017-06-10T04:34:24.934Z,64
2017-06-10T04:35:24.948Z,65
2017-06-10T04:36:24.931Z,70
2017-06-10T04:37:24.933Z,74
2017-06-10T04:38:24.931Z,78
2017-06-10T04:39:24.933Z,72
2017-06-10T04:40:24.934Z,81
2017-06-10T04:41:24.962Z,82
2017-06-10T04:42:24.935Z,86
2017-06-10T04:43:24.939Z,89
2017-06-10T04:44:24.946Z,86
2017-06-10T04:45:24.944Z,92
2017-06-10T04:46:24.938Z,101
2017-06-10T04:47:24.940Z,102
2017-06-10T04:48:24.942Z,99
2017-06-10T04:49:24.943Z,118
2017-06-10T04:50:24.861Z,104
2017-06-10T04:51:24.941Z,88
2017-06-10T04:52:24.942Z,89
2017-06-10T04:53:24.959Z,93
2017-06-10T04:54:24.961Z,97
2017-06-10T04:55:24.936Z,85
2017-06-10T04:56:24.959Z,90
2017-06-10T04:57:24.964Z,87
2017-06-10T04:58:24.923Z,87
2017-06-10T04:59:24.975Z,95
2017-06-10T05:00:24.971Z,99
2017-06-10T05:01:24.966Z,105
2017-06-10T05:02:24.965Z,87
2017-06-10T05:03:24.951Z,100
2017-06-10T05:04:24.944Z,108
2017-06-10T05:05:24.946Z,101
2017-06-10T05:06:24.947Z,104
2017-06-10T05:07:24.948Z,104
2017-06-10T05:08:24.948Z,115
2017-06-10T05:09:24.945Z,119
2017-06-10T05:10:24.946Z,119
2017-06-10T05:11:24.947Z,123
2017-06-10T05:12:24.951Z,131
2017-06-10T05:13:24.821Z,135
2017-06-10T05:14:24.837Z,130
2017-06-10T05:15:24.861Z,134
2017-06-10T05:16:24.859Z,141
2017-06-10T05:17:24.805Z,152
2017-06-10T05:18:24.803Z,130
2017-06-10T05:19:24.853Z,157
2017-06-10T05:20:24.856Z,175
2017-06-10T05:21:24.843Z,176
2017-06-10T05:22:24.860Z,179
2017-06-10T05:23:24.891Z,128
2017-06-10T05:24:24.986Z,208
2017-06-10T05:25:24.982Z,204
2017-06-10T05:26:24.983Z,217
2017-06-10T05:27:24.940Z,195
2017-06-10T05:28:24.891Z,170
2017-06-10T05:29:24.979Z,208
2017-06-10T05:30:24.979Z,200
2017-06-10T05:31:24.985Z,205
2017-06-10T05:32:24.895Z,208
2017-06-10T05:33:24.973Z,230
2017-06-10T05:34:24.901Z,279
2017-06-10T05:35:24.988Z,301
2017-06-10T05:36:24.966Z,334
2017-06-10T05:37:24.962Z,342
2017-06-10T05:38:24.962Z,347
2017-06-10T05:39:24.907Z,311
2017-06-10T05:40:24.983Z,234
2017-06-10T05:41:24.900Z,222
2017-06-10T05:42:24.993Z,208
2017-06-10T05:43:24.897Z,207
2017-06-10T05:44:24.897Z,194
2017-06-10T05:45:24.992Z,187
2017-06-10T05:46:24.944Z,180
2017-06-10T05:47:24.981Z,183
2017-06-10T05:48:24.898Z,171
2017-06-10T05:49:24.988Z,194
2017-06-10T05:50:24.908Z,200
2017-06-10T05:51:24.987Z,159
2017-06-10T05:52:24.994Z,143
2017-06-10T05:53:24.998Z,125
2017-06-10T05:54:24.975Z,137
2017-06-10T05:55:24.989Z,130
2017-06-10T05:56:24.975Z,152
2017-06-10T05:57:24.977Z,162
2017-06-10T05:58:24.979Z,156
2017-06-10T05:59:24.910Z,168
2017-06-10T06:00:24.997Z,171
2017-06-10T06:01:25.006Z,190
2017-06-10T06:02:24.956Z,215
2017-06-10T06:03:24.986Z,181
2017-06-10T06:04:24.899Z,166
2017-06-10T06:05:24.907Z,155
2017-06-10T06:06:24.904Z,162
2017-06-10T06:07:24.902Z,159
2017-06-10T06:08:25.000Z,139
2017-06-10T06:09:24.912Z,137
2017-06-10T06:10:24.909Z,114
2017-06-10T06:11:24.910Z,151
2017-06-10T06:12:24.887Z,168
2017-06-10T06:13:24.950Z,190
2017-06-10T06:14:24.923Z,194
2017-06-10T06:15:25.003Z,202
2017-06-10T06:16:25.003Z,197
2017-06-10T06:17:24.938Z,199
2017-06-10T06:18:25.010Z,199
2017-06-10T06:19:24.931Z,204
2017-06-10T06:20:24.926Z,217
2017-06-10T06:21:25.012Z,246
2017-06-10T06:22:24.972Z,257
2017-06-10T06:23:25.024Z,273
2017-06-10T06:24:24.968Z,280
2017-06-10T06:25:24.957Z,265
2017-06-10T06:26:24.916Z,265
2017-06-10T06:27:24.900Z,267
2017-06-10T06:28:24.964Z,261
2017-06-10T06:29:24.952Z,252
2017-06-10T06:30:24.969Z,234
2017-06-10T06:31:24.922Z,210
2017-06-10T06:32:24.920Z,191
2017-06-10T06:33:24.910Z,192
2017-06-10T06:34:24.984Z,202
2017-06-10T06:35:24.984Z,202
2017-06-10T06:36:24.985Z,208
2017-06-10T06:37:24.987Z,221
2017-06-10T06:38:24.990Z,226
2017-06-10T06:39:24.987Z,233
2017-06-10T06:40:24.986Z,245
2017-06-10T06:41:24.986Z,264
2017-06-10T06:42:24.985Z,309
2017-06-10T06:43:24.987Z,259
2017-06-10T06:44:25.004Z,437
2017-06-10T06:45:25.000Z,384
2017-06-10T06:46:25.000Z,228
2017-06-10T06:47:25.003Z,208
2017-06-10T06:48:25.002Z,224
2017-06-10T06:49:24.927Z,243
2017-06-10T06:50:25.004Z,292
2017-06-10T06:51:25.090Z,234
2017-06-10T06:52:24.917Z,495
2017-06-10T06:53:25.003Z,539
2017-06-10T06:54:24.993Z,512
2017-06-10T06:55:24.997Z,470
2017-06-10T06:56:24.994Z,201
2017-06-10T06:57:24.997Z,141
2017-06-10T06:58:24.995Z,152
2017-06-10T06:59:25.003Z,154
2017-06-10T07:00:25.100Z,170
2017-06-10T07:01:25.000Z,192
2017-06-10T07:02:24.998Z,340
2017-06-10T07:03:24.999Z,576
2017-06-10T07:04:24.996Z,551
2017-06-10T07:05:24.997Z,523
2017-06-10T07:06:25.000Z,531
2017-06-10T07:07:24.997Z,558
2017-06-10T07:08:25.005Z,607
2017-06-10T07:09:24.996Z,595
2017-06-10T07:10:25.001Z,599
2017-06-10T07:11:25.001Z,594
2017-06-10T07:12:25.003Z,618
2017-06-10T07:13:25.003Z,622
2017-06-10T07:14:25.012Z,621
2017-06-10T07:15:25.033Z,622
2017-06-10T07:16:25.038Z,635
2017-06-10T07:17:25.000Z,638
2017-06-10T07:18:25.045Z,642
2017-06-10T07:19:25.035Z,650
2017-06-10T07:20:25.042Z,695
2017-06-10T07:21:24.999Z,703
2017-06-10T07:22:25.031Z,712
2017-06-10T07:23:25.044Z,719
2017-06-10T07:24:25.032Z,727
2017-06-10T07:25:25.001Z,728
2017-06-10T07:26:25.046Z,726
2017-06-10T07:27:24.959Z,732
2017-06-10T07:28:25.043Z,736
2017-06-10T07:29:24.964Z,745
2017-06-10T07:30:25.024Z,746
2017-06-10T07:31:25.044Z,754
2017-06-10T07:32:25.020Z,752
2017-06-10T07:33:25.051Z,749
2017-06-10T07:34:25.047Z,743
2017-06-10T07:35:25.155Z,737
2017-06-10T07:36:25.149Z,738
2017-06-10T07:37:25.026Z,746
2017-06-10T07:38:25.049Z,752
2017-06-10T07:39:24.963Z,755
2017-06-10T07:40:25.009Z,761
2017-06-10T07:41:24.967Z,757
2017-06-10T07:42:25.048Z,758
2017-06-10T07:43:25.049Z,766
2017-06-10T07:44:25.032Z,775
2017-06-10T07:45:25.037Z,781
2017-06-10T07:46:25.034Z,782
2017-06-10T07:47:25.032Z,786
2017-06-10T07:48:25.052Z,785
2017-06-10T07:49:25.036Z,787
2017-06-10T07:50:25.039Z,781
2017-06-10T07:51:25.036Z,789
2017-06-10T07:52:25.039Z,783
2017-06-10T07:53:25.034Z,788
2017-06-10T07:54:25.039Z,787
2017-06-10T07:55:25.037Z,795
2017-06-10T07:56:25.041Z,815
2017-06-10T07:57:25.039Z,830
2017-06-10T07:58:25.040Z,832
2017-06-10T07:59:25.038Z,834
2017-06-10T08:00:25.041Z,833
2017-06-10T08:01:25.042Z,845
2017-06-10T08:02:25.043Z,867
2017-06-10T08:03:25.040Z,882
2017-06-10T08:04:25.041Z,888
2017-06-10T08:05:25.050Z,889
2017-06-10T08:06:25.043Z,891
2017-06-10T08:07:25.050Z,917
2017-06-10T08:08:25.127Z,941
2017-06-10T08:09:25.048Z,945
2017-06-10T08:10:25.047Z,928
2017-06-10T08:11:25.049Z,935
2017-06-10T08:12:25.047Z,918
2017-06-10T08:13:25.047Z,802
2017-06-10T08:14:25.045Z,643
2017-06-10T08:15:25.070Z,619
2017-06-10T08:16:25.071Z,857
2017-06-10T08:17:25.076Z,985
2017-06-10T08:18:24.988Z,280
2017-06-10T08:19:24.979Z,1003
2017-06-10T08:20:25.056Z,999
2017-06-10T08:21:25.181Z,991
2017-06-10T08:22:25.069Z,996
2017-06-10T08:23:25.035Z,997
2017-06-10T08:24:24.986Z,1006
2017-06-10T08:25:24.995Z,289
2017-06-10T08:26:25.074Z,250
2017-06-10T08:27:25.083Z,241
2017-06-10T08:28:25.075Z,244
2017-06-10T08:29:25.010Z,244
2017-06-10T08:30:25.074Z,982
2017-06-10T08:31:25.076Z,993
2017-06-10T08:32:25.075Z,263
2017-06-10T08:33:25.109Z,756
2017-06-10T08:34:25.080Z,985
2017-06-10T08:35:25.045Z,980
2017-06-10T08:36:24.993Z,989
2017-06-10T08:37:24.997Z,978
2017-06-10T08:38:25.084Z,988
2017-06-10T08:39:25.075Z,992
2017-06-10T08:40:25.080Z,1006
2017-06-10T08:41:25.039Z,1017
2017-06-10T08:42:25.042Z,1003
2017-06-10T08:43:25.001Z,1019
2017-06-10T08:44:25.085Z,1038
2017-06-10T08:45:24.998Z,1043
2017-06-10T08:46:25.090Z,1041
2017-06-10T08:47:24.998Z,1035
2017-06-10T08:48:24.996Z,1020
2017-06-10T08:49:25.085Z,1022
2017-06-10T08:50:25.006Z,1020
2017-06-10T08:51:25.002Z,1029
2017-06-10T08:52:25.071Z,1023
2017-06-10T08:53:25.072Z,234
2017-06-10T08:54:25.008Z,197
2017-06-10T08:55:24.979Z,212
2017-06-10T08:56:25.067Z,216
2017-06-10T08:57:25.092Z,224
2017-06-10T08:58:25.088Z,291
2017-06-10T08:59:24.972Z,1049
2017-06-10T09:00:24.997Z,1084
2017-06-10T09:01:25.033Z,941
2017-06-10T09:02:24.984Z,674
2017-06-10T09:03:24.997Z,244
2017-06-10T09:04:25.075Z,228
2017-06-10T09:05:25.074Z,224
2017-06-10T09:06:25.079Z,399
2017-06-10T09:07:25.075Z,1075
2017-06-10T09:08:25.078Z,1100
2017-06-10T09:09:25.086Z,1112
2017-06-10T09:10:25.074Z,1103
2017-06-10T09:11:25.083Z,1092
2017-06-10T09:12:25.082Z,1087
2017-06-10T09:13:25.080Z,1076
2017-06-10T09:14:25.075Z,1071
2017-06-10T09:15:25.076Z,1076
2017-06-10T09:16:28.097Z,1075
2017-06-10T09:17:25.079Z,1067
2017-06-10T09:18:25.080Z,1069
2017-06-10T09:19:25.082Z,1129
2017-06-10T09:20:25.080Z,1158
2017-06-10T09:21:25.077Z,1147
2017-06-10T09:22:25.084Z,1146
2017-06-10T09:23:25.042Z,1143
2017-06-10T09:24:25.043Z,1082
2017-06-10T09:25:25.004Z,1083
2017-06-10T09:26:25.005Z,918
2017-06-10T09:27:25.010Z,1075
2017-06-10T09:28:25.049Z,435
2017-06-10T09:29:25.009Z,864
2017-06-10T09:30:25.050Z,680
2017-06-10T09:31:24.969Z,327
2017-06-10T09:32:25.051Z,339
2017-06-10T09:33:25.077Z,1014
2017-06-10T09:34:25.138Z,318
2017-06-10T09:35:25.111Z,307
2017-06-10T09:36:25.035Z,329
2017-06-10T09:37:25.073Z,1178
2017-06-10T09:38:25.028Z,1181
2017-06-10T09:39:25.117Z,1146
2017-06-10T09:40:25.094Z,1121
2017-06-10T09:41:25.072Z,1079
2017-06-10T09:42:25.111Z,1075
2017-06-10T09:43:25.108Z,1077
2017-06-10T09:44:25.086Z,1068
2017-06-10T09:45:25.085Z,1071
2017-06-10T09:46:25.087Z,1092
2017-06-10T09:47:25.085Z,1101
2017-06-10T09:48:25.088Z,1099
2017-06-10T09:49:25.087Z,1097
2017-06-10T09:50:25.089Z,1103
2017-06-10T09:51:25.091Z,1098
2017-06-10T09:52:25.115Z,1144
2017-06-10T09:53:25.100Z,1151
2017-06-10T09:54:25.104Z,531
2017-06-10T09:55:25.107Z,1158
2017-06-10T09:56:25.106Z,1013
2017-06-10T09:57:25.110Z,299
2017-06-10T09:58:25.108Z,459
2017-06-10T09:59:25.026Z,300
2017-06-10T10:00:25.108Z,303
2017-06-10T10:01:25.108Z,329
2017-06-10T10:02:25.109Z,383
2017-06-10T10:03:25.094Z,1220
2017-06-10T10:04:25.098Z,1221
2017-06-10T10:05:25.023Z,1157
2017-06-10T10:06:25.103Z,1192
2017-06-10T10:07:25.097Z,1199
2017-06-10T10:08:25.101Z,1201
2017-06-10T10:09:25.101Z,338
2017-06-10T10:10:25.100Z,316
2017-06-10T10:11:25.104Z,569
2017-06-10T10:12:25.102Z,510
2017-06-10T10:13:25.101Z,1178
2017-06-10T10:14:25.092Z,1190
2017-06-10T10:15:25.135Z,1196
2017-06-10T10:16:25.043Z,1173
2017-06-10T10:17:25.141Z,1188
2017-06-10T10:18:25.114Z,342
2017-06-10T10:19:25.050Z,382
2017-06-10T10:21:25.095Z,332
2017-06-10T10:22:25.138Z,363
2017-06-10T10:23:25.097Z,1198
2017-06-10T10:24:25.147Z,1216
2017-06-10T10:25:25.057Z,1221
2017-06-10T10:26:25.118Z,1222
2017-06-10T10:27:25.051Z,1216
2017-06-10T10:28:25.135Z,1179
2017-06-10T10:29:25.139Z,467
2017-06-10T10:30:25.140Z,1239
2017-06-10T10:31:25.147Z,1235
2017-06-10T10:32:25.091Z,1210
2017-06-10T10:33:25.057Z,1240
2017-06-10T10:34:25.168Z,1261
2017-06-10T10:35:25.144Z,1234
2017-06-10T10:36:25.064Z,1271
2017-06-10T10:37:25.102Z,493
2017-06-10T10:38:25.144Z,1162
2017-06-10T10:39:25.145Z,629
2017-06-10T10:40:25.141Z,727
2017-06-10T10:41:25.111Z,934
2017-06-10T10:42:25.153Z,889
2017-06-10T10:43:25.066Z,677
2017-06-10T10:44:25.126Z,1061
2017-06-10T10:45:25.068Z,1148
2017-06-10T10:46:25.127Z,539
2017-06-10T10:47:25.156Z,558
2017-06-10T10:48:25.159Z,688
2017-06-10T10:49:25.150Z,874
2017-06-10T10:50:25.126Z,911
2017-06-10T10:51:25.185Z,824
2017-06-10T10:52:25.159Z,944
2017-06-10T10:53:25.066Z,798
2017-06-10T10:54:25.135Z,746
2017-06-10T10:55:25.134Z,836
2017-06-10T10:56:25.135Z,1043
2017-06-10T10:57:25.140Z,935
2017-06-10T10:58:25.139Z,926
2017-06-10T10:59:25.219Z,802
2017-06-10T11:00:25.144Z,1277
2017-06-10T11:01:25.140Z,988
2017-06-10T11:02:25.142Z,1363
2017-06-10T11:03:25.141Z,807
2017-06-10T11:04:25.139Z,595
2017-06-10T11:05:25.140Z,694
2017-06-10T11:06:25.149Z,701
2017-06-10T11:07:25.143Z,1142
2017-06-10T11:08:25.142Z,944
2017-06-10T11:09:25.147Z,1112
2017-06-10T11:10:25.143Z,1460
2017-06-10T11:11:25.146Z,630
2017-06-10T11:12:25.152Z,1101
2017-06-10T11:13:25.147Z,1272
2017-06-10T11:14:25.133Z,909
2017-06-10T11:15:25.135Z,597
2017-06-10T11:16:25.135Z,566
2017-06-10T11:17:25.134Z,698
2017-06-10T11:18:25.135Z,683
2017-06-10T11:19:25.135Z,617
2017-06-10T11:20:25.138Z,890
2017-06-10T11:21:25.135Z,1495
2017-06-10T11:22:25.137Z,1039
2017-06-10T11:23:25.136Z,1070
2017-06-10T11:24:25.169Z,1481
2017-06-10T11:25:25.174Z,1441
2017-06-10T11:26:25.089Z,1365
2017-06-10T11:27:25.149Z,969
2017-06-10T11:28:25.181Z,747
2017-06-10T11:29:25.088Z,610
2017-06-10T11:30:25.183Z,617
2017-06-10T11:31:25.169Z,562
2017-06-10T11:32:25.084Z,611
2017-06-10T11:33:25.097Z,614
2017-06-10T11:34:25.097Z,613
2017-06-10T11:35:25.177Z,650
2017-06-10T11:36:25.088Z,713
2017-06-10T11:37:25.181Z,681
2017-06-10T11:38:25.181Z,723
2017-06-10T11:39:25.254Z,809
2017-06-10T11:40:25.090Z,725
2017-06-10T11:41:25.149Z,708
2017-06-10T11:42:25.190Z,730
2017-06-10T11:43:25.176Z,835
2017-06-10T11:44:25.183Z,861
2017-06-10T11:45:25.184Z,697
2017-06-10T11:46:25.183Z,638
2017-06-10T11:47:25.103Z,821
2017-06-10T11:48:25.186Z,729
2017-06-10T11:49:25.181Z,759
2017-06-10T11:50:25.187Z,1211
2017-06-10T11:51:25.189Z,971
2017-06-10T11:52:25.183Z,884
2017-06-10T11:53:25.235Z,692
2017-06-10T11:54:25.188Z,622
2017-06-10T11:55:25.106Z,701
2017-06-10T11:56:25.145Z,652
2017-06-10T11:57:25.186Z,598
2017-06-10T11:58:25.190Z,611
2017-06-10T11:59:25.194Z,620
2017-06-10T12:00:25.153Z,922
2017-06-10T12:01:25.175Z,1459
2017-06-10T12:02:25.195Z,1181
2017-06-10T12:03:25.191Z,1390
2017-06-10T12:04:25.173Z,1075
2017-06-10T12:05:25.177Z,673
2017-06-10T12:06:25.174Z,895
2017-06-10T12:07:25.258Z,940
2017-06-10T12:08:25.174Z,801
2017-06-10T12:09:25.177Z,1046
2017-06-10T12:10:25.174Z,911
2017-06-10T12:11:25.177Z,1040
2017-06-10T12:12:25.177Z,1089
2017-06-10T12:13:25.180Z,941
2017-06-10T12:14:25.159Z,946
2017-06-10T12:15:25.287Z,906
2017-06-10T12:16:25.179Z,715
2017-06-10T12:17:25.179Z,623
2017-06-10T12:18:25.208Z,592
2017-06-10T12:19:25.201Z,624
2017-06-10T12:20:25.200Z,1427
2017-06-10T12:21:25.120Z,1391
2017-06-10T12:22:25.114Z,1337
2017-06-10T12:23:25.205Z,1323
2017-06-10T12:24:25.212Z,1311
2017-06-10T12:25:25.204Z,1332
2017-06-10T12:26:25.180Z,1294
2017-06-10T12:27:25.209Z,1353
2017-06-10T12:28:25.124Z,1153
2017-06-10T12:29:25.258Z,982
2017-06-10T12:30:25.122Z,942
2017-06-10T12:31:25.215Z,930
2017-06-10T12:32:25.208Z,838
2017-06-10T12:33:25.127Z,824
2017-06-10T12:34:25.121Z,1107
2017-06-10T12:35:25.206Z,1216
2017-06-10T12:36:25.134Z,1037
2017-06-10T12:37:25.124Z,686
2017-06-10T12:38:25.213Z,813
2017-06-10T12:39:25.238Z,614
2017-06-10T12:40:25.135Z,604
2017-06-10T12:41:25.177Z,614
2017-06-10T12:42:25.132Z,674
2017-06-10T12:43:25.193Z,853
2017-06-10T12:44:25.197Z,792
2017-06-10T12:45:25.198Z,965
2017-06-10T12:46:25.200Z,801
2017-06-10T12:47:25.196Z,681
2017-06-10T12:48:25.203Z,632
2017-06-10T12:49:25.205Z,571
2017-06-10T12:50:25.199Z,562
2017-06-10T12:51:25.199Z,560
2017-06-10T12:52:25.204Z,606
2017-06-10T12:53:25.199Z,560
2017-06-10T12:54:25.240Z,590
2017-06-10T12:55:25.227Z,478
2017-06-10T12:56:25.235Z,463
2017-06-10T12:57:25.143Z,443
2017-06-10T12:58:25.137Z,406
2017-06-10T12:59:25.205Z,389
2017-06-10T13:00:25.143Z,402
2017-06-10T13:01:25.220Z,514
2017-06-10T13:02:25.223Z,676
2017-06-10T13:03:25.231Z,488
2017-06-10T13:04:25.192Z,496
2017-06-10T13:05:25.192Z,522
2017-06-10T13:06:25.337Z,888
2017-06-10T13:07:25.199Z,963
2017-06-10T13:08:25.196Z,876
2017-06-10T13:09:25.194Z,759
2017-06-10T13:10:25.225Z,492
2017-06-10T13:11:25.195Z,448
2017-06-10T13:12:25.295Z,425
2017-06-10T13:13:25.200Z,367
2017-06-10T13:14:25.200Z,354
2017-06-10T13:15:25.215Z,346
2017-06-10T13:16:25.308Z,382
2017-06-10T13:17:25.215Z,508
2017-06-10T13:18:25.212Z,1157
2017-06-10T13:19:25.216Z,737
2017-06-10T13:20:25.216Z,954
2017-06-10T13:21:25.218Z,400
2017-06-10T13:22:25.215Z,586
2017-06-10T13:23:25.320Z,328
2017-06-10T13:24:25.215Z,241
2017-06-10T13:25:25.217Z,215
2017-06-10T13:26:25.219Z,238
2017-06-10T13:27:25.221Z,273
2017-06-10T13:28:25.218Z,447
2017-06-10T13:29:25.251Z,330
2017-06-10T13:30:25.218Z,401
2017-06-10T13:31:25.218Z,826
2017-06-10T13:32:25.221Z,516
2017-06-10T13:33:25.139Z,537
2017-06-10T13:34:25.223Z,539
2017-06-10T13:35:25.212Z,597
2017-06-10T13:36:25.217Z,623
2017-06-10T13:37:25.219Z,579
2017-06-10T13:38:25.215Z,810
2017-06-10T13:39:25.220Z,892
2017-06-10T13:40:25.217Z,958
2017-06-10T13:41:25.216Z,640
2017-06-10T13:42:25.215Z,832
2017-06-10T13:43:25.216Z,718
2017-06-10T13:44:25.216Z,1136
2017-06-10T13:45:25.256Z,888
2017-06-10T13:46:25.239Z,494
2017-06-10T13:47:25.229Z,530
2017-06-10T13:48:25.208Z,612
2017-06-10T13:49:25.249Z,706
2017-06-10T13:50:25.247Z,618
2017-06-10T13:51:25.244Z,844
2017-06-10T13:52:25.260Z,359
2017-06-10T13:53:25.251Z,351
2017-06-10T13:54:25.168Z,329
2017-06-10T13:55:25.252Z,303
2017-06-10T13:56:25.252Z,283
2017-06-10T13:57:25.254Z,307
2017-06-10T13:58:25.217Z,730
2017-06-10T13:59:25.168Z,1110
2017-06-10T14:00:25.268Z,1046
2017-06-10T14:01:25.251Z,1093